createdAt,value
2023-02-12T00:00:29.490Z,94
2023-02-12T00:03:29.030Z,94
2023-02-12T00:06:28.814Z,94
2023-02-12T00:09:32.699Z,94.1
2023-02-12T00:12:29.445Z,94.1
2023-02-12T00:15:28.652Z,94.1
2023-02-12T00:18:31.951Z,94.1
2023-02-12T00:21:29.548Z,94.1
2023-02-12T00:24:29.423Z,94.1
2023-02-12T00:27:32.617Z,94.2
2023-02-12T00:30:29.485Z,94.2
2023-02-12T00:33:29.257Z,94.2
2023-02-12T00:36:31.978Z,94.3
2023-02-12T00:39:29.363Z,94.3
2023-02-12T00:42:29.350Z,94.3
2023-02-12T00:45:29.273Z,94.3
2023-02-12T00:48:32.358Z,94.3
2023-02-12T00:51:28.652Z,94.3
2023-02-12T00:54:28.636Z,94.3
2023-02-12T00:57:31.628Z,94.3
2023-02-12T01:00:28.651Z,94.3
2023-02-12T01:03:29.267Z,94.3
2023-02-12T01:06:32.393Z,94.3
2023-02-12T01:09:28.991Z,94.3
2023-02-12T01:12:28.625Z,94.3
2023-02-12T01:15:31.945Z,94.3
2023-02-12T01:18:29.443Z,94.3
2023-02-12T01:21:29.273Z,94.3
2023-02-12T01:24:29.171Z,94.3
2023-02-12T01:27:32.408Z,94.3
2023-02-12T01:30:28.687Z,94.3
2023-02-12T01:33:28.579Z,94.3
2023-02-12T01:36:32.577Z,94.3
2023-02-12T01:39:28.754Z,94.3
2023-02-12T01:42:29.420Z,94.3
2023-02-12T01:45:32.021Z,94.3
2023-02-12T01:48:29.264Z,94.3
2023-02-12T01:51:28.980Z,94.3
2023-02-12T01:54:32.706Z,94.3
2023-02-12T01:57:28.924Z,94.3
2023-02-12T02:00:28.613Z,94.3
2023-02-12T02:03:28.746Z,94.3
2023-02-12T02:06:31.956Z,94.4
2023-02-12T02:09:28.455Z,94.4
2023-02-12T02:12:29.301Z,94.4
2023-02-12T02:15:32.287Z,94.4
2023-02-12T02:18:28.538Z,94.4
2023-02-12T02:21:29.138Z,94.4
2023-02-12T02:24:32.033Z,94.3
2023-02-12T02:27:29.348Z,94.3
2023-02-12T02:30:29.057Z,94.3
2023-02-12T02:33:32.293Z,94.3
2023-02-12T02:36:28.760Z,94.3
2023-02-12T02:39:28.525Z,94.3
2023-02-12T02:42:28.795Z,94.3
2023-02-12T02:45:32.080Z,94.3
2023-02-12T02:48:29.068Z,94.3
2023-02-12T02:51:29.096Z,94.3
2023-02-12T02:54:32.562Z,94.2
2023-02-12T02:57:29.019Z,94.2
2023-02-12T03:00:29.005Z,94.2
2023-02-12T03:03:32.313Z,94.2
2023-02-12T03:06:28.710Z,94.2
2023-02-12T03:09:29.267Z,94.2
2023-02-12T03:12:32.399Z,94.1
2023-02-12T03:15:29.052Z,94.1
2023-02-12T03:18:28.839Z,94.1
2023-02-12T03:21:28.619Z,94.1
2023-02-12T03:24:31.671Z,93.9
2023-02-12T03:27:28.951Z,93.9
2023-02-12T03:30:29.488Z,93.9
2023-02-12T03:33:32.565Z,93.8
2023-02-12T03:36:28.905Z,93.8
2023-02-12T03:39:29.023Z,93.8
2023-02-12T03:42:32.300Z,93.7
2023-02-12T03:45:29.701Z,93.7
2023-02-12T03:48:28.433Z,93.7
2023-02-12T03:51:32.117Z,93.7
2023-02-12T03:54:35.881Z,93.7
2023-02-12T03:57:28.627Z,93.7
2023-02-12T04:00:28.583Z,93.7
2023-02-12T04:03:32.756Z,93.6
2023-02-12T04:06:29.250Z,93.6
2023-02-12T04:09:29.138Z,93.6
2023-02-12T04:12:32.216Z,93.6
2023-02-12T04:15:28.768Z,93.6
2023-02-12T04:18:28.754Z,93.6
2023-02-12T04:21:32.336Z,93.6
2023-02-12T04:24:28.606Z,93.6
2023-02-12T04:27:28.449Z,93.6
2023-02-12T04:30:33.289Z,93.6
2023-02-12T04:33:29.363Z,93.6
2023-02-12T04:36:28.871Z,93.6
2023-02-12T04:39:28.525Z,93.6
2023-02-12T04:42:32.298Z,93.5
2023-02-12T04:45:28.486Z,93.5
2023-02-12T04:48:29.072Z,93.5
2023-02-12T04:51:31.682Z,93.6
2023-02-12T04:54:28.880Z,93.6
2023-02-12T04:57:28.545Z,93.6
2023-02-12T05:00:32.801Z,93.6
2023-02-12T05:03:29.104Z,93.6
2023-02-12T05:06:29.029Z,93.6
2023-02-12T05:09:32.100Z,93.7
2023-02-12T05:12:29.280Z,93.7
2023-02-12T05:15:29.541Z,93.7
2023-02-12T05:18:29.410Z,93.7
2023-02-12T05:21:32.494Z,93.8
2023-02-12T05:24:28.934Z,93.8
2023-02-12T05:27:28.718Z,93.8
2023-02-12T05:30:32.565Z,93.9
2023-02-12T05:33:29.027Z,93.9
2023-02-12T05:36:29.048Z,93.9
2023-02-12T05:39:32.723Z,94.1
2023-02-12T05:42:29.217Z,94.1
2023-02-12T05:45:29.088Z,94.1
2023-02-12T05:48:32.223Z,94.3
2023-02-12T05:51:28.707Z,94.3
2023-02-12T05:54:28.634Z,94.3
2023-02-12T05:57:29.422Z,94.3
2023-02-12T06:00:36.166Z,94.5
2023-02-12T06:03:30.336Z,94.5
2023-02-12T06:06:29.168Z,94.5
2023-02-12T06:09:33.522Z,94.7
2023-02-12T06:12:29.290Z,94.7
2023-02-12T06:15:28.989Z,94.7
2023-02-12T06:18:32.088Z,94.9
2023-02-12T06:21:28.680Z,94.9
2023-02-12T06:24:29.414Z,94.9
2023-02-12T06:27:32.666Z,94.9
2023-02-12T06:30:29.720Z,94.9
2023-02-12T06:33:28.731Z,94.9
2023-02-12T06:36:28.443Z,94.9
2023-02-12T06:39:32.644Z,95
2023-02-12T06:42:29.041Z,95
2023-02-12T06:45:28.727Z,95
2023-02-12T06:48:32.701Z,95
2023-02-12T06:51:29.406Z,95
2023-02-12T06:54:28.961Z,95
2023-02-12T06:57:31.828Z,95
2023-02-12T07:00:29.536Z,95
2023-02-12T07:03:29.683Z,95
2023-02-12T07:06:31.918Z,94.9
2023-02-12T07:09:29.525Z,94.9
2023-02-12T07:12:29.496Z,94.9
2023-02-12T07:15:28.880Z,94.9
2023-02-12T07:18:32.114Z,94.9
2023-02-12T07:21:29.340Z,94.9
2023-02-12T07:24:29.179Z,94.9
2023-02-12T07:27:32.548Z,94.8
2023-02-12T07:30:29.865Z,94.8
2023-02-12T07:33:29.230Z,94.8
2023-02-12T07:36:32.121Z,94.8
2023-02-12T07:39:29.509Z,94.8
2023-02-12T07:42:29.292Z,94.8
2023-02-12T07:45:32.824Z,94.8
2023-02-12T07:48:29.448Z,94.8
2023-02-12T07:51:29.083Z,94.8
2023-02-12T07:54:28.888Z,94.8
2023-02-12T07:57:31.949Z,94.8
2023-02-12T08:00:29.472Z,94.8
2023-02-12T08:03:29.453Z,94.8
2023-02-12T08:06:32.428Z,94.8
2023-02-12T08:09:28.832Z,94.8
2023-02-12T08:12:28.834Z,94.8
2023-02-12T08:15:32.104Z,94.7
2023-02-12T08:18:28.772Z,94.7
2023-02-12T08:21:29.007Z,94.7
2023-02-12T08:24:32.367Z,94.7
2023-02-12T08:27:28.841Z,94.7
2023-02-12T08:30:28.991Z,94.7
2023-02-12T08:33:28.738Z,94.7
2023-02-12T08:36:32.007Z,94.6
2023-02-12T08:39:28.894Z,94.6
2023-02-12T08:42:28.733Z,94.6
2023-02-12T08:45:31.833Z,94.6
2023-02-12T08:48:29.271Z,94.6
2023-02-12T08:51:28.953Z,94.6
2023-02-12T08:54:31.978Z,94.5
2023-02-12T08:57:29.481Z,94.5
2023-02-12T09:00:29.219Z,94.5
2023-02-12T09:03:32.274Z,94.5
2023-02-12T09:06:28.801Z,94.5
2023-02-12T09:09:28.737Z,94.5
2023-02-12T09:12:31.840Z,94.4
2023-02-12T09:15:29.404Z,94.4
2023-02-12T09:18:29.136Z,94.4
2023-02-12T09:21:28.901Z,94.4
2023-02-12T09:24:32.150Z,94.4
2023-02-12T09:27:31.853Z,94.4
2023-02-12T09:30:28.699Z,94.4
2023-02-12T09:33:32.575Z,94.3
2023-02-12T09:36:29.355Z,94.3
2023-02-12T09:39:29.290Z,94.3
2023-02-12T09:42:32.161Z,94.3
2023-02-12T09:45:28.664Z,94.3
2023-02-12T09:48:28.496Z,94.3
2023-02-12T09:51:32.573Z,94.3
2023-02-12T09:54:29.043Z,94.3
2023-02-12T09:57:29.056Z,94.3
2023-02-12T10:00:29.413Z,94.3
2023-02-12T10:03:32.367Z,94.3
2023-02-12T10:06:28.895Z,94.3
2023-02-12T10:09:28.742Z,94.3
2023-02-12T10:12:32.355Z,94.2
2023-02-12T10:15:29.176Z,94.2
2023-02-12T10:18:29.293Z,94.2
2023-02-12T10:21:32.716Z,94.2
2023-02-12T10:24:29.239Z,94.2
2023-02-12T10:27:28.949Z,94.2
2023-02-12T10:30:32.209Z,94.1
2023-02-12T10:33:28.556Z,94.1
2023-02-12T10:36:29.158Z,94.1
2023-02-12T10:39:28.952Z,94.1
2023-02-12T10:42:32.101Z,94.1
2023-02-12T10:45:30.148Z,94.1
2023-02-12T10:48:29.293Z,94.1
2023-02-12T10:51:32.608Z,94
2023-02-12T10:54:29.342Z,94
2023-02-12T10:57:29.220Z,94
2023-02-12T11:00:32.209Z,93.9
2023-02-12T11:03:28.807Z,93.9
2023-02-12T11:06:29.412Z,93.9
2023-02-12T11:09:32.537Z,93.9
2023-02-12T11:12:29.183Z,93.9
2023-02-12T11:15:29.078Z,93.9
2023-02-12T11:18:29.069Z,93.9
2023-02-12T11:21:32.036Z,93.8
2023-02-12T11:24:29.261Z,93.8
2023-02-12T11:27:29.394Z,93.8
2023-02-12T11:30:32.817Z,93.7
2023-02-12T11:33:29.556Z,93.7
2023-02-12T11:36:28.752Z,93.7
2023-02-12T11:39:32.009Z,93.7
2023-02-12T11:42:28.665Z,93.7
2023-02-12T11:45:28.943Z,93.7
2023-02-12T11:48:32.137Z,93.6
2023-02-12T11:51:28.780Z,93.6
2023-02-12T11:54:29.340Z,93.6
2023-02-12T11:57:29.352Z,93.6
2023-02-12T12:00:32.893Z,93.5
2023-02-12T12:03:29.715Z,93.5
2023-02-12T12:06:29.018Z,93.5
2023-02-12T12:09:32.200Z,93.5
2023-02-12T12:12:28.653Z,93.5
2023-02-12T12:15:29.062Z,93.5
2023-02-12T12:18:32.109Z,93.4
2023-02-12T12:21:28.862Z,93.4
2023-02-12T12:24:29.456Z,93.4
2023-02-12T12:27:32.470Z,93.3
2023-02-12T12:30:29.131Z,93.3
2023-02-12T12:33:29.344Z,93.3
2023-02-12T12:36:29.809Z,93.3
2023-02-12T12:39:32.170Z,93.2
2023-02-12T12:42:28.984Z,93.2
2023-02-12T12:45:29.146Z,93.2
2023-02-12T12:48:32.519Z,93.1
2023-02-12T12:51:29.107Z,93.1
2023-02-12T12:54:29.141Z,93.1
2023-02-12T12:57:32.406Z,92.9
2023-02-12T13:00:28.962Z,92.9
2023-02-12T13:03:28.754Z,92.9
2023-02-12T13:06:32.142Z,92.8
2023-02-12T13:09:28.882Z,92.8
2023-02-12T13:12:28.799Z,92.8
2023-02-12T13:15:28.964Z,92.8
2023-02-12T13:18:32.472Z,92.7
2023-02-12T13:21:28.938Z,92.7
2023-02-12T13:24:28.587Z,92.7
2023-02-12T13:27:35.056Z,92.6
2023-02-12T13:30:31.460Z,92.6
2023-02-12T13:33:29.750Z,92.6
2023-02-12T13:36:33.633Z,92.5
2023-02-12T13:39:29.241Z,92.5
2023-02-12T13:42:29.139Z,92.5
2023-02-12T13:45:32.761Z,92.4
2023-02-12T13:48:29.836Z,92.4
2023-02-12T13:51:28.764Z,92.4
2023-02-12T13:54:29.662Z,92.4
2023-02-12T13:57:32.756Z,92.4
2023-02-12T14:00:30.771Z,92.4
2023-02-12T14:03:28.847Z,92.4
2023-02-12T14:06:32.146Z,92.3
2023-02-12T14:09:29.622Z,92.3
2023-02-12T14:12:29.423Z,92.3
2023-02-12T14:15:32.611Z,92.2
2023-02-12T14:18:29.294Z,92.2
2023-02-12T14:21:29.344Z,92.2
2023-02-12T14:24:32.649Z,92.1
2023-02-12T14:27:29.192Z,92.1
2023-02-12T14:30:29.403Z,92.1
2023-02-12T14:33:29.235Z,92.1
2023-02-12T14:36:32.389Z,92.1
2023-02-12T14:39:29.330Z,92.1
2023-02-12T14:42:29.416Z,92.1
2023-02-12T14:45:32.010Z,92.1
2023-02-12T14:48:28.580Z,92.1
2023-02-12T14:51:29.316Z,92.1
2023-02-12T14:54:32.470Z,92.1
2023-02-12T14:57:29.409Z,92.1
2023-02-12T15:00:29.359Z,92.1
2023-02-12T15:03:32.322Z,92
2023-02-12T15:06:28.902Z,92
2023-02-12T15:09:28.821Z,92
2023-02-12T15:12:28.832Z,92
2023-02-12T15:15:31.924Z,92
2023-02-12T15:18:29.426Z,92
2023-02-12T15:21:29.339Z,92
2023-02-12T15:24:32.414Z,92
2023-02-12T15:27:28.808Z,92
2023-02-12T15:30:29.483Z,92
2023-02-12T15:33:32.731Z,92
2023-02-12T15:36:29.419Z,92
2023-02-12T15:39:29.278Z,92
2023-02-12T15:42:32.393Z,92
2023-02-12T15:45:29.310Z,92
2023-02-12T15:48:28.826Z,92
2023-02-12T15:51:29.940Z,92
2023-02-12T15:54:32.285Z,92
2023-02-12T15:57:29.286Z,92
2023-02-12T16:00:29.004Z,92
2023-02-12T16:03:32.623Z,92
2023-02-12T16:06:29.841Z,92
2023-02-12T16:09:29.018Z,92
2023-02-12T16:12:32.306Z,91.9
2023-02-12T16:15:29.382Z,91.9
2023-02-12T16:18:29.396Z,91.9
2023-02-12T16:21:32.614Z,91.9
2023-02-12T16:24:29.460Z,91.9
2023-02-12T16:27:28.925Z,91.9
2023-02-12T16:30:29.172Z,91.9
2023-02-12T16:33:32.752Z,91.9
2023-02-12T16:36:29.727Z,91.9
2023-02-12T16:39:29.498Z,91.9
2023-02-12T16:42:32.518Z,92
2023-02-12T16:45:29.531Z,92
2023-02-12T16:48:28.490Z,92
2023-02-12T16:51:32.505Z,92.1
2023-02-12T16:54:28.956Z,92.1
2023-02-12T16:57:28.664Z,92.1
2023-02-12T17:00:32.505Z,92.1
2023-02-12T17:03:29.286Z,92.1
2023-02-12T17:06:29.425Z,92.1
2023-02-12T17:09:29.342Z,92.1
2023-02-12T17:12:32.699Z,92.2
2023-02-12T17:15:29.255Z,92.2
2023-02-12T17:18:29.099Z,92.2
2023-02-12T17:21:32.389Z,92.3
2023-02-12T17:24:29.422Z,92.3
2023-02-12T17:27:29.488Z,92.3
2023-02-12T17:30:32.470Z,92.3
2023-02-12T17:33:28.843Z,92.3
2023-02-12T17:36:28.776Z,92.3
2023-02-12T17:39:32.041Z,92.4
2023-02-12T17:42:29.822Z,92.4
2023-02-12T17:45:28.706Z,92.4
2023-02-12T17:48:29.306Z,92.4
2023-02-12T17:51:32.168Z,92.5
2023-02-12T17:54:28.927Z,92.5
2023-02-12T17:57:28.898Z,92.5
2023-02-12T18:00:32.047Z,92.5
2023-02-12T18:03:28.977Z,92.5
2023-02-12T18:06:28.799Z,92.5
2023-02-12T18:09:32.392Z,92.5
2023-02-12T18:12:28.368Z,92.5
2023-02-12T18:15:29.332Z,92.5
2023-02-12T18:18:31.808Z,92.4
2023-02-12T18:21:28.839Z,92.4
2023-02-12T18:24:29.435Z,92.4
2023-02-12T18:27:28.984Z,92.4
2023-02-12T18:30:32.946Z,92.4
2023-02-12T18:33:28.577Z,92.4
2023-02-12T18:36:29.325Z,92.4
2023-02-12T18:39:32.125Z,92.4
2023-02-12T18:42:29.334Z,92.4
2023-02-12T18:45:28.852Z,92.4
2023-02-12T18:48:32.611Z,92.4
2023-02-12T18:51:29.145Z,92.4
2023-02-12T18:54:28.935Z,92.4
2023-02-12T18:57:31.951Z,92.4
2023-02-12T19:00:29.113Z,92.4
2023-02-12T19:03:28.999Z,92.4
2023-02-12T19:06:28.957Z,92.4
2023-02-12T19:09:31.959Z,92.4
2023-02-12T19:12:29.468Z,92.4
2023-02-12T19:15:29.377Z,92.4
2023-02-12T19:18:32.551Z,92.4
2023-02-12T19:21:29.175Z,92.4
2023-02-12T19:24:47.419Z,92.4
2023-02-12T19:27:31.806Z,92.5
2023-02-12T19:30:29.551Z,92.5
2023-02-12T19:33:29.294Z,92.5
2023-02-12T19:36:32.242Z,92.5
2023-02-12T19:39:28.745Z,92.5
2023-02-12T19:42:28.674Z,92.5
2023-02-12T19:45:29.334Z,92.5
2023-02-12T19:48:32.287Z,92.5
2023-02-12T19:51:29.332Z,92.5
2023-02-12T19:54:29.817Z,92.5
2023-02-12T19:57:33.565Z,92.4
2023-02-12T20:00:30.805Z,92.4
2023-02-12T20:03:30.726Z,92.4
2023-02-12T20:06:32.695Z,92.4
2023-02-12T20:09:29.618Z,92.4
2023-02-12T20:12:29.124Z,92.4
2023-02-12T20:15:32.836Z,92.4
2023-02-12T20:18:29.368Z,92.4
2023-02-12T20:21:29.343Z,92.4
2023-02-12T20:24:29.345Z,92.4
2023-02-12T20:27:32.642Z,92.5
2023-02-12T20:30:29.200Z,92.5
2023-02-12T20:33:29.058Z,92.5
2023-02-12T20:36:32.478Z,92.5
2023-02-12T20:39:29.066Z,92.5
2023-02-12T20:42:28.949Z,92.5
2023-02-12T20:45:32.254Z,92.5
2023-02-12T20:48:28.812Z,92.5
2023-02-12T20:51:29.751Z,92.5
2023-02-12T20:54:32.413Z,92.5
2023-02-12T20:57:29.214Z,92.5
2023-02-12T21:00:29.456Z,92.5
2023-02-12T21:03:29.652Z,92.5
2023-02-12T21:06:31.716Z,92.5
2023-02-12T21:09:38.844Z,92.5
2023-02-12T21:12:29.242Z,92.5
2023-02-12T21:15:32.353Z,92.5
2023-02-12T21:18:29.404Z,92.5
2023-02-12T21:21:29.332Z,92.5
2023-02-12T21:24:32.402Z,92.5
2023-02-12T21:27:29.032Z,92.5
2023-02-12T21:30:28.941Z,92.5
2023-02-12T21:33:31.932Z,92.5
2023-02-12T21:36:28.605Z,92.5
2023-02-12T21:39:29.016Z,92.5
2023-02-12T21:42:34.698Z,92.5
2023-02-12T21:45:29.252Z,92.5
2023-02-12T21:48:28.495Z,92.5
2023-02-12T21:51:28.780Z,92.5
2023-02-12T21:54:32.796Z,92.5
2023-02-12T21:57:29.280Z,92.5
2023-02-12T22:00:29.149Z,92.5
2023-02-12T22:03:32.332Z,92.4
2023-02-12T22:06:29.162Z,92.4
2023-02-12T22:09:28.758Z,92.4
2023-02-12T22:12:32.103Z,92.4
2023-02-12T22:15:28.842Z,92.4
2023-02-12T22:18:29.049Z,92.4
2023-02-12T22:21:32.178Z,92.4
2023-02-12T22:24:29.356Z,92.4
2023-02-12T22:27:29.303Z,92.4
2023-02-12T22:30:29.313Z,92.4
2023-02-12T22:33:32.639Z,92.3
2023-02-12T22:36:29.001Z,92.3
2023-02-12T22:39:28.819Z,92.3
2023-02-12T22:42:31.891Z,92.3
2023-02-12T22:45:29.189Z,92.3
2023-02-12T22:48:29.242Z,92.3
2023-02-12T22:51:32.417Z,92.2
2023-02-12T22:54:28.830Z,92.2
2023-02-12T22:57:28.921Z,92.2
2023-02-12T23:00:32.459Z,92.1
2023-02-12T23:03:29.342Z,92.1
2023-02-12T23:06:29.508Z,92.1
2023-02-12T23:09:29.061Z,92.1
2023-02-12T23:12:32.252Z,92.1
2023-02-12T23:15:28.697Z,92.1
2023-02-12T23:18:28.502Z,92.1
2023-02-12T23:21:31.800Z,92
2023-02-12T23:24:29.241Z,92
2023-02-12T23:27:28.910Z,92
2023-02-12T23:30:31.845Z,92
2023-02-12T23:33:29.323Z,92
2023-02-12T23:36:28.910Z,92
2023-02-12T23:39:32.396Z,92
2023-02-12T23:42:28.856Z,92
2023-02-12T23:45:28.788Z,92
2023-02-12T23:48:28.780Z,92
2023-02-12T23:51:32.181Z,92
2023-02-12T23:54:28.793Z,92
2023-02-12T23:57:28.472Z,92
